Time;durP1;ratioP1;P1;durP2;ratioP2;P2;SDS_P1;SDS_P2;PMS_P1;PMS_P2;Temp;Humidity;BMP_temperature;BMP_pressure;BME280_temperature;BME280_humidity;BME280_pressure;Samples;Min_cycle;Max_cycle;Signal;HPM_P1;HPM_P2
2021/09/29 00:02:10;;;;;;;;;14.75;14.50;;;;;17.80;46.39;99033.34;4803789;28;102572;-91
2021/09/29 00:04:37;;;;;;;;;11.25;11.25;;;;;17.79;46.30;99033.56;4823072;28;102579;-91
2021/09/29 00:07:04;;;;;;;;;8.00;7.00;;;;;17.77;46.64;99027.53;4838415;28;105105;-90
2021/09/29 00:09:31;;;;;;;;;12.00;11.75;;;;;17.74;46.32;99023.34;4834990;28;103987;-91
2021/09/29 00:11:59;;;;;;;;;13.75;11.50;;;;;17.72;45.63;99025.50;4838976;28;102668;-90
2021/09/29 00:14:26;;;;;;;;;10.25;10.00;;;;;17.71;46.37;99025.72;4850690;28;102149;-90
2021/09/29 00:16:53;;;;;;;;;14.00;12.00;;;;;17.70;45.67;99024.03;4832273;28;105579;-90
2021/09/29 00:19:21;;;;;;;;;9.00;9.00;;;;;17.69;45.73;99025.97;4836456;28;104384;-90
2021/09/29 00:21:48;;;;;;;;;14.00;11.25;;;;;17.68;46.20;99024.31;4841280;28;102933;-91
2021/09/29 00:24:16;;;;;;;;;11.75;11.00;;;;;17.67;45.81;99019.91;4832567;28;102553;-91
2021/09/29 00:26:43;;;;;;;;;12.25;11.00;;;;;17.65;46.37;99030.22;4836138;28;102542;-91
2021/09/29 00:29:10;;;;;;;;;9.75;9.75;;;;;17.63;45.39;99023.34;4832535;28;104069;-91
2021/09/29 00:31:39;;;;;;;;;11.25;10.75;;;;;17.61;45.88;99023.56;4831622;28;104665;-91
2021/09/29 00:34:12;;;;;;;;;10.50;9.75;;;;;17.63;45.71;99023.34;4831481;28;102800;-90
2021/09/29 00:36:43;;;;;;;;;11.00;11.00;;;;;17.62;46.08;99021.66;4837597;28;103907;-91
2021/09/29 00:39:11;;;;;;;;;11.25;10.75;;;;;17.59;45.90;99008.47;4825368;28;104322;-91
2021/09/29 00:41:39;;;;;;;;;15.00;13.75;;;;;17.61;45.33;99012.63;4842602;28;105790;-91
2021/09/29 00:44:06;;;;;;;;;11.00;10.25;;;;;17.54;45.45;99017.34;4839132;28;102210;-91
2021/09/29 00:46:33;;;;;;;;;15.00;12.00;;;;;17.55;45.84;99018.19;4823526;28;105296;-90
2021/09/29 00:49:00;;;;;;;;;11.25;9.50;;;;;17.50;45.53;99021.63;4839502;28;104449;-90
2021/09/29 00:51:27;;;;;;;;;11.75;11.25;;;;;17.51;45.45;99011.53;4830493;28;102578;-91
2021/09/29 00:53:55;;;;;;;;;12.00;10.25;;;;;17.49;45.59;99013.66;4841824;28;104062;-91
2021/09/29 00:56:23;;;;;;;;;10.50;10.00;;;;;17.48;45.98;99010.09;4800248;28;102280;-91
2021/09/29 00:58:50;;;;;;;;;12.00;11.00;;;;;17.48;46.33;99003.78;4834355;28;104024;-91
2021/09/29 01:01:17;;;;;;;;;10.50;10.50;;;;;17.44;45.65;99006.16;4819955;28;102410;-91
2021/09/29 01:03:45;;;;;;;;;10.50;10.50;;;;;17.43;45.73;98999.00;4801932;28;109722;-91
2021/09/29 01:06:34;;;;;;;;;13.00;11.25;;;;;17.41;45.60;98992.97;4803323;28;102799;-91
2021/09/29 01:09:16;;;;;;;;;10.00;9.50;;;;;17.40;45.68;98988.56;4813324;28;108753;-90
2021/09/29 01:11:48;;;;;;;;;11.50;10.00;;;;;17.40;46.13;98983.09;4784133;28;102228;-91
2021/09/29 01:14:27;;;;;;;;;10.00;9.00;;;;;17.38;45.89;98974.31;4833291;28;103759;-91
2021/09/29 01:16:57;;;;;;;;;12.00;11.00;;;;;17.38;44.83;98983.31;4839217;28;102720;-91
2021/09/29 01:19:52;;;;;;;;;12.00;10.00;;;;;17.36;44.85;98971.81;4843861;28;104025;-91
2021/09/29 01:22:25;;;;;;;;;11.00;10.25;;;;;17.37;45.74;98961.69;4845588;28;102720;-90
2021/09/29 01:24:56;;;;;;;;;12.25;11.75;;;;;17.34;45.10;98963.00;4829325;28;102504;-91
2021/09/29 01:27:23;;;;;;;;;9.25;8.00;;;;;17.31;45.62;98958.00;4848533;28;102502;-90
2021/09/29 01:29:51;;;;;;;;;10.50;9.50;;;;;17.32;45.41;98953.38;4845186;28;104775;-91
2021/09/29 01:32:19;;;;;;;;;9.00;9.00;;;;;17.31;45.05;98960.75;4816833;28;102427;-91
2021/09/29 01:34:51;;;;;;;;;11.00;11.00;;;;;17.29;45.16;98949.19;4852933;28;103159;-91
2021/09/29 01:37:18;;;;;;;;;12.25;11.25;;;;;17.28;45.55;98946.72;4850692;28;102640;-91
2021/09/29 01:39:45;;;;;;;;;11.33;11.00;;;;;17.27;45.89;98947.78;4848575;28;104063;-91
2021/09/29 01:42:13;;;;;;;;;9.75;8.75;;;;;17.25;44.79;98948.00;4835906;28;105052;-91
2021/09/29 01:44:40;;;;;;;;;11.75;11.75;;;;;17.25;45.73;98948.00;4848594;28;102522;-91
2021/09/29 01:47:09;;;;;;;;;14.00;9.50;;;;;17.23;45.68;98941.13;4841383;28;102524;-90
2021/09/29 01:49:45;;;;;;;;;11.00;10.50;;;;;17.22;44.82;98942.19;4855966;28;104122;-91
2021/09/29 01:52:12;;;;;;;;;11.75;10.50;;;;;17.21;45.77;98951.44;4855659;28;102605;-91
2021/09/29 01:54:45;;;;;;;;;10.25;9.50;;;;;17.20;45.04;98949.81;4842033;28;104130;-91
2021/09/29 01:57:12;;;;;;;;;11.00;11.00;;;;;17.21;44.33;98945.97;4857821;28;102499;-91
2021/09/29 01:59:41;;;;;;;;;11.25;10.50;;;;;17.19;45.64;98948.97;4851006;28;104122;-91
2021/09/29 02:02:08;;;;;;;;;12.00;10.75;;;;;17.17;44.90;98939.31;4844676;28;103346;-90
2021/09/29 02:04:36;;;;;;;;;12.75;11.00;;;;;17.16;45.50;98943.13;4850961;28;102704;-91
2021/09/29 02:07:03;;;;;;;;;10.75;10.00;;;;;17.13;44.76;98947.16;4858963;28;102675;-91
2021/09/29 02:09:31;;;;;;;;;10.25;8.75;;;;;17.09;44.53;98942.41;4852794;28;108361;-91
2021/09/29 02:11:58;;;;;;;;;13.00;11.00;;;;;17.10;44.47;98949.53;4862246;28;102660;-91
2021/09/29 02:14:25;;;;;;;;;9.50;9.50;;;;;17.08;44.49;98946.19;4849797;28;105751;-91
2021/09/29 02:16:54;;;;;;;;;11.50;8.75;;;;;17.10;44.38;98955.00;4864670;28;102508;-92
2021/09/29 02:19:21;;;;;;;;;11.00;11.00;;;;;17.06;45.40;98943.72;4860193;28;104130;-91
2021/09/29 02:21:49;;;;;;;;;16.25;13.25;;;;;17.06;45.24;98946.44;4840612;28;104547;-91
2021/09/29 02:24:16;;;;;;;;;11.75;10.50;;;;;17.04;44.73;98950.47;4852711;28;103569;-91
2021/09/29 02:26:43;;;;;;;;;10.75;10.50;;;;;17.03;45.28;98946.91;4863678;28;102719;-90
2021/09/29 02:29:11;;;;;;;;;12.75;12.00;;;;;17.03;45.19;98948.78;4859694;28;104064;-91
2021/09/29 02:31:38;;;;;;;;;9.00;9.00;;;;;16.98;44.75;98938.56;4840362;28;105970;-91
2021/09/29 02:34:06;;;;;;;;;10.50;9.50;;;;;16.99;45.02;98953.91;4853197;28;103652;-88
2021/09/29 02:36:33;;;;;;;;;11.25;9.75;;;;;16.98;44.51;98951.38;4863932;28;102441;-91
2021/09/29 02:39:00;;;;;;;;;12.00;11.00;;;;;16.94;44.63;98940.94;4858441;28;110021;-91
2021/09/29 02:41:27;;;;;;;;;11.50;11.25;;;;;16.96;44.98;98943.44;4846103;28;102599;-91
2021/09/29 02:43:54;;;;;;;;;11.25;10.50;;;;;16.95;44.28;98948.06;4861782;28;104868;-91
2021/09/29 02:46:23;;;;;;;;;10.00;9.50;;;;;16.95;44.70;98942.63;4862011;28;102632;-90
2021/09/29 02:48:53;;;;;;;;;10.75;9.75;;;;;16.93;44.45;98933.00;4850622;28;104380;-91
2021/09/29 02:51:20;;;;;;;;;12.50;11.25;;;;;16.91;44.29;98941.41;4847067;28;102488;-91
2021/09/29 02:53:47;;;;;;;;;11.00;10.25;;;;;16.89;44.13;98924.41;4831892;28;102566;-91
2021/09/29 02:56:14;;;;;;;;;10.00;10.00;;;;;16.87;43.75;98926.56;4858081;28;104933;-91
2021/09/29 02:58:41;;;;;;;;;11.00;9.75;;;;;16.86;43.73;98922.16;4858824;28;104068;-91
2021/09/29 03:01:08;;;;;;;;;11.75;11.00;;;;;16.84;44.62;98918.81;4861452;28;102597;-91
2021/09/29 03:03:35;;;;;;;;;11.50;9.00;;;;;16.84;43.85;98927.00;4855971;28;102732;-90
2021/09/29 03:06:02;;;;;;;;;13.00;12.50;;;;;16.82;44.01;98925.59;4859424;28;103271;-91
2021/09/29 03:08:29;;;;;;;;;12.25;10.25;;;;;16.81;44.74;98918.44;4857469;28;108801;-91
2021/09/29 03:10:56;;;;;;;;;14.25;13.75;;;;;16.79;43.82;98921.44;4854777;28;107255;-91
2021/09/29 03:13:23;;;;;;;;;10.00;10.00;;;;;16.77;44.20;98914.53;4853781;28;102243;-91
2021/09/29 03:15:50;;;;;;;;;13.75;12.00;;;;;16.76;44.19;98912.84;4861740;28;102280;-91
2021/09/29 03:18:18;;;;;;;;;12.00;11.50;;;;;16.76;43.64;98910.13;4860178;28;105704;-90
2021/09/29 03:20:45;;;;;;;;;10.25;10.25;;;;;16.74;44.38;98907.66;4862360;28;110499;-90
2021/09/29 03:23:12;;;;;;;;;10.25;10.00;;;;;16.74;43.48;98913.13;4859620;28;103008;-89
2021/09/29 03:25:40;;;;;;;;;11.00;11.00;;;;;16.74;43.97;98906.81;4843810;28;102943;-90
2021/09/29 03:28:07;;;;;;;;;12.75;11.75;;;;;16.69;44.20;98915.69;4855260;28;104574;-90
2021/09/29 03:30:34;;;;;;;;;12.00;10.75;;;;;16.68;43.91;98914.03;4861225;28;102972;-90
2021/09/29 03:33:01;;;;;;;;;10.25;10.00;;;;;16.64;44.10;98910.09;4849204;28;103187;-90
2021/09/29 03:35:28;;;;;;;;;12.25;10.75;;;;;16.62;43.92;98901.28;4856214;28;102641;-90
2021/09/29 03:37:55;;;;;;;;;11.75;10.75;;;;;16.64;44.11;98920.19;4848308;28;104117;-90
2021/09/29 03:40:22;;;;;;;;;9.75;9.75;;;;;16.63;43.95;98899.41;4854364;28;102588;-90
2021/09/29 03:42:49;;;;;;;;;11.25;10.25;;;;;16.61;43.38;98894.19;4855645;28;102554;-89
2021/09/29 03:45:16;;;;;;;;;11.00;10.00;;;;;16.61;44.55;98890.63;4859058;28;102386;-90
2021/09/29 03:47:44;;;;;;;;;10.75;9.75;;;;;16.60;43.95;98895.25;4849913;28;104370;-89
2021/09/29 03:50:12;;;;;;;;;11.25;9.75;;;;;16.57;44.11;98892.13;4852007;28;103978;-89
2021/09/29 03:52:39;;;;;;;;;10.25;9.50;;;;;16.55;43.41;98895.09;4852074;28;102416;-89
2021/09/29 03:55:07;;;;;;;;;12.25;10.25;;;;;16.54;43.40;98885.22;4860353;28;105381;-93
2021/09/29 03:57:38;;;;;;;;;9.25;9.25;;;;;16.62;43.34;98882.19;4857871;28;108845;-90
2021/09/29 04:00:07;;;;;;;;;10.50;10.00;;;;;16.63;43.62;98878.41;4847650;28;102447;-90
2021/09/29 04:02:35;;;;;;;;;10.25;9.25;;;;;16.62;44.11;98879.47;4847971;28;103263;-90
2021/09/29 04:05:06;;;;;;;;;8.75;8.00;;;;;16.58;43.84;98882.88;4858462;28;102740;-91
2021/09/29 04:07:36;;;;;;;;;10.50;9.50;;;;;16.54;43.87;98887.94;4853736;28;108929;-91
2021/09/29 04:10:04;;;;;;;;;11.00;10.50;;;;;16.52;43.98;98885.44;4851030;28;102599;-91
2021/09/29 04:12:30;;;;;;;;;12.00;11.25;;;;;16.50;44.47;98884.84;4851238;28;102956;-90
2021/09/29 04:14:58;;;;;;;;;10.75;9.75;;;;;16.47;43.52;98887.22;4845169;28;102535;-91
2021/09/29 04:17:25;;;;;;;;;9.00;9.00;;;;;16.48;44.05;98888.88;4842673;28;104090;-91
2021/09/29 04:19:52;;;;;;;;;10.25;10.00;;;;;16.44;44.08;98877.59;4835604;28;105114;-91
2021/09/29 04:22:19;;;;;;;;;10.75;10.00;;;;;16.44;43.94;98877.59;4841885;28;102214;-91
2021/09/29 04:24:47;;;;;;;;;10.25;9.75;;;;;16.44;43.73;98884.94;4835396;28;102655;-91
2021/09/29 04:27:14;;;;;;;;;9.25;9.00;;;;;16.44;43.57;98882.22;4832737;28;105280;-91
2021/09/29 04:29:41;;;;;;;;;11.00;9.75;;;;;16.40;44.06;98881.84;4843456;28;102707;-91
2021/09/29 04:32:08;;;;;;;;;10.00;9.75;;;;;16.41;44.07;98875.34;4835503;28;102670;-90
2021/09/29 04:34:36;;;;;;;;;11.75;10.50;;;;;16.40;43.89;98875.56;4845843;28;103120;-91
2021/09/29 04:37:03;;;;;;;;;10.75;10.00;;;;;16.38;43.75;98873.06;4855726;28;110433;-91
2021/09/29 04:39:30;;;;;;;;;13.75;11.50;;;;;16.37;43.87;98868.69;4851802;28;101773;-91
2021/09/29 04:41:57;;;;;;;;;10.00;8.75;;;;;16.36;43.82;98871.63;4856510;28;101974;-91
2021/09/29 04:44:24;;;;;;;;;9.00;9.00;;;;;16.35;43.89;98869.94;4861544;28;101921;-91
2021/09/29 04:46:51;;;;;;;;;9.00;8.25;;;;;16.32;43.59;98871.25;4850360;28;103385;-91
2021/09/29 04:49:18;;;;;;;;;11.25;9.75;;;;;16.33;43.06;98878.38;4850320;28;103447;-91
2021/09/29 04:51:45;;;;;;;;;10.50;10.25;;;;;16.31;43.42;98874.22;4867466;28;101872;-91
2021/09/29 04:54:12;;;;;;;;;10.50;9.00;;;;;16.26;43.27;98877.63;4852483;28;102357;-91
2021/09/29 04:56:40;;;;;;;;;9.50;8.00;;;;;16.28;43.38;98880.97;4850156;28;103439;-91
2021/09/29 04:59:07;;;;;;;;;8.00;8.00;;;;;16.24;43.87;98887.13;4866329;28;102177;-91
2021/09/29 05:01:34;;;;;;;;;8.50;8.00;;;;;16.25;43.72;98877.88;4851327;28;102045;-91
2021/09/29 05:04:01;;;;;;;;;9.75;9.75;;;;;16.22;43.76;98872.88;4835315;28;102082;-91
2021/09/29 05:06:28;;;;;;;;;8.75;8.25;;;;;16.22;43.67;98881.88;4854416;28;103424;-91
2021/09/29 05:08:55;;;;;;;;;9.75;9.75;;;;;16.22;43.37;98884.63;4848768;28;101894;-90
2021/09/29 05:11:29;;;;;;;;;10.00;9.00;;;;;16.19;43.47;98879.63;4850206;28;102121;-90
2021/09/29 05:13:56;;;;;;;;;11.00;9.50;;;;;16.19;43.58;98873.34;4842279;28;101908;-91
2021/09/29 05:16:23;;;;;;;;;9.25;9.00;;;;;16.17;42.85;98884.47;4847083;28;103597;-91
2021/09/29 05:18:50;;;;;;;;;10.00;9.75;;;;;16.16;43.80;98882.84;4855689;28;102716;-91
2021/09/29 05:21:17;;;;;;;;;10.00;8.50;;;;;16.17;43.21;98883.63;4838864;28;102122;-91
2021/09/29 05:23:44;;;;;;;;;10.50;9.00;;;;;16.15;43.12;98880.31;4847560;28;102244;-92
2021/09/29 05:26:11;;;;;;;;;9.00;9.00;;;;;16.14;42.97;98878.66;4850102;28;103351;-92
2021/09/29 05:28:40;;;;;;;;;11.00;9.50;;;;;16.12;43.78;98884.31;4862734;28;102238;-92
2021/09/29 05:31:07;;;;;;;;;10.75;9.00;;;;;16.13;43.39;98876.97;4837223;28;102326;-92
2021/09/29 05:33:34;;;;;;;;;12.00;11.00;;;;;16.12;43.33;98883.53;4856722;28;103627;-92
2021/09/29 05:36:01;;;;;;;;;10.00;9.75;;;;;16.10;43.68;98882.91;4854284;28;103844;-92
2021/09/29 05:38:28;;;;;;;;;10.25;9.25;;;;;16.06;43.71;98880.63;4845274;28;102145;-92
2021/09/29 05:40:55;;;;;;;;;9.50;8.25;;;;;16.07;43.42;98879.56;4856142;28;102169;-92
2021/09/29 05:43:22;;;;;;;;;10.75;10.00;;;;;16.07;43.13;98884.22;4840019;28;103181;-92
2021/09/29 05:45:51;;;;;;;;;10.75;10.25;;;;;16.07;43.65;98878.75;4858203;28;102984;-92
2021/09/29 05:48:18;;;;;;;;;11.50;9.50;;;;;16.05;43.66;98881.69;4834936;28;102235;-92
2021/09/29 05:50:45;;;;;;;;;11.00;8.50;;;;;16.06;43.70;98883.38;4853141;28;101753;-93
2021/09/29 05:53:12;;;;;;;;;12.00;9.00;;;;;16.04;43.59;98882.75;4846491;28;102267;-92
2021/09/29 05:55:39;;;;;;;;;11.00;9.25;;;;;16.04;43.61;98890.09;4854956;28;103690;-88
2021/09/29 05:58:06;;;;;;;;;10.75;10.50;;;;;16.04;44.05;98880.03;4846221;28;102753;-93
2021/09/29 06:00:34;;;;;;;;;11.25;9.00;;;;;16.03;43.70;98883.81;4855136;28;101798;-92
2021/09/29 06:03:01;;;;;;;;;12.25;9.75;;;;;16.03;43.32;98877.50;4855544;28;102262;-92
2021/09/29 06:05:28;;;;;;;;;10.00;9.50;;;;;16.04;43.73;98880.03;4852882;28;103517;-91
2021/09/29 06:07:55;;;;;;;;;11.75;10.50;;;;;16.00;44.11;98884.28;4858479;28;102159;-92
2021/09/29 06:10:22;;;;;;;;;12.50;10.00;;;;;15.99;43.74;98888.06;4858738;28;102188;-92
2021/09/29 06:12:50;;;;;;;;;10.00;10.00;;;;;15.98;43.56;98897.31;4845228;28;103338;-92
2021/09/29 06:15:21;;;;;;;;;10.00;9.00;;;;;15.99;43.42;98898.97;4865071;28;103658;-92
2021/09/29 06:17:57;;;;;;;;;10.50;8.75;;;;;15.98;44.09;98897.31;4867006;28;101881;-92
2021/09/29 06:20:28;;;;;;;;;10.50;9.50;;;;;15.97;44.06;98892.94;4842002;28;104137;-92
2021/09/29 06:22:55;;;;;;;;;8.75;7.75;;;;;15.98;44.00;98901.94;4845127;28;101811;-93
2021/09/29 06:25:23;;;;;;;;;4.00;4.00;;;;;15.97;43.57;98906.56;4864211;28;103493;-92
2021/09/29 06:27:50;;;;;;;;;11.75;10.25;;;;;15.94;43.76;98896.09;4850346;28;111314;-92
2021/09/29 06:30:17;;;;;;;;;9.50;9.00;;;;;15.96;44.24;98904.06;4847355;28;102427;-93
2021/09/29 06:32:44;;;;;;;;;10.25;9.25;;;;;15.94;44.00;98906.19;4861352;28;102386;-93
2021/09/29 06:35:11;;;;;;;;;12.50;10.00;;;;;15.94;44.27;98896.09;4855980;28;103195;-92
2021/09/29 06:37:44;;;;;;;;;10.50;8.75;;;;;15.93;44.42;98905.34;4863521;28;101953;-92
2021/09/29 06:40:18;;;;;;;;;11.00;10.00;;;;;15.96;44.08;98899.44;4864254;28;101905;-92
2021/09/29 06:42:45;;;;;;;;;9.00;8.25;;;;;15.96;43.94;98904.88;4859266;28;101914;-92
2021/09/29 06:45:13;;;;;;;;;11.00;9.25;;;;;15.97;44.12;98906.56;4862378;28;103383;-92
2021/09/29 06:47:40;;;;;;;;;10.00;10.00;;;;;15.96;43.97;98910.34;4857952;28;110453;-87
2021/09/29 06:50:08;;;;;;;;;8.50;8.50;;;;;15.95;44.60;98907.84;4844567;28;102299;-92
2021/09/29 06:52:36;;;;;;;;;10.25;9.00;;;;;15.95;44.56;98918.75;4857425;28;101864;-92
2021/09/29 06:55:04;;;;;;;;;9.00;8.50;;;;;15.94;44.56;98912.44;4857115;28;103554;-92
2021/09/29 06:57:31;;;;;;;;;12.75;11.50;;;;;15.94;44.37;98920.63;4839132;28;104167;-91
2021/09/29 06:59:58;;;;;;;;;10.50;8.75;;;;;15.95;44.83;98925.03;4859192;28;101937;-92
2021/09/29 07:02:26;;;;;;;;;9.00;9.00;;;;;15.96;45.01;98923.97;4853952;28;102415;-92
2021/09/29 07:04:53;;;;;;;;;11.75;11.00;;;;;15.97;44.32;98922.09;4853423;28;103733;-92
2021/09/29 07:07:20;;;;;;;;;11.50;9.75;;;;;15.96;44.60;98923.97;4870085;28;103769;-92
2021/09/29 07:09:47;;;;;;;;;11.25;10.00;;;;;15.94;44.61;98920.63;4858123;28;102061;-92
2021/09/29 07:12:14;;;;;;;;;10.50;9.75;;;;;15.95;44.61;98925.03;4862292;28;102295;-93
2021/09/29 07:14:41;;;;;;;;;14.25;11.75;;;;;15.97;44.66;98927.53;4859415;28;103328;-87
2021/09/29 07:17:08;;;;;;;;;12.75;11.25;;;;;15.95;45.15;98924.19;4856663;28;102204;-92
2021/09/29 07:19:35;;;;;;;;;12.25;11.00;;;;;15.94;45.56;98922.56;4857770;28;104607;-92
2021/09/29 07:22:03;;;;;;;;;11.25;11.25;;;;;15.96;45.09;98918.53;4846617;28;102121;-92
2021/09/29 07:24:30;;;;;;;;;9.00;8.75;;;;;15.97;45.60;98917.47;4827623;28;103209;-93
2021/09/29 07:26:57;;;;;;;;;10.00;9.75;;;;;15.96;45.42;98920.41;4848693;28;102123;-92
2021/09/29 07:29:24;;;;;;;;;13.75;11.25;;;;;15.99;45.98;98923.50;4847387;28;101850;-92
2021/09/29 07:31:51;;;;;;;;;12.50;11.75;;;;;16.00;45.48;98921.63;4845872;28;102125;-93
2021/09/29 07:34:19;;;;;;;;;15.00;13.00;;;;;15.99;45.59;98915.34;4857872;28;103871;-92
2021/09/29 07:36:46;;;;;;;;;14.00;13.00;;;;;15.99;45.68;98917.22;4853772;28;102214;-92
2021/09/29 07:39:13;;;;;;;;;14.50;13.75;;;;;15.97;46.04;98922.94;4848911;28;102037;-91
2021/09/29 07:41:40;;;;;;;;;13.75;13.75;;;;;15.99;46.16;98919.94;4850839;28;102213;-92
2021/09/29 07:44:09;;;;;;;;;14.00;13.00;;;;;15.99;45.98;98917.22;4859409;28;110045;-92
2021/09/29 07:46:36;;;;;;;;;16.25;13.00;;;;;15.99;46.28;98925.41;4830596;28;103377;-93
2021/09/29 07:49:03;;;;;;;;;16.25;12.75;;;;;16.01;46.36;98924.13;4854910;28;101612;-92
2021/09/29 07:51:30;;;;;;;;;13.75;11.75;;;;;16.03;46.57;98913.81;4852780;28;102158;-92
2021/09/29 07:53:57;;;;;;;;;12.00;11.25;;;;;16.03;46.35;98922.00;4855354;28;104372;-92
2021/09/29 07:56:25;;;;;;;;;12.00;11.50;;;;;16.04;46.19;98918.22;4850589;28;102286;-92
2021/09/29 07:58:52;;;;;;;;;15.75;14.75;;;;;16.05;46.55;98922.63;4841555;28;101743;-92
2021/09/29 08:01:19;;;;;;;;;14.75;13.00;;;;;16.06;46.45;98920.72;4855001;28;102022;-92
2021/09/29 08:03:46;;;;;;;;;14.75;13.00;;;;;16.05;46.52;98919.88;4851365;28;110842;-92
2021/09/29 08:06:13;;;;;;;;;11.00;10.00;;;;;16.06;46.94;98915.28;4856547;28;101761;-91
2021/09/29 08:08:40;;;;;;;;;13.25;13.25;;;;;16.06;46.39;98921.56;4853164;28;101960;-92
2021/09/29 08:11:10;;;;;;;;;13.00;12.00;;;;;16.08;46.67;98913.13;4850656;28;102885;-92
2021/09/29 08:13:37;;;;;;;;;13.50;11.75;;;;;16.12;46.59;98916.25;4853452;28;109431;-92
2021/09/29 08:16:04;;;;;;;;;11.50;11.50;;;;;16.13;46.78;98918.72;4843275;28;101793;-92
2021/09/29 08:18:31;;;;;;;;;13.75;12.50;;;;;16.11;47.35;98901.78;4862321;28;102744;-92
2021/09/29 08:21:01;;;;;;;;;14.50;13.25;;;;;16.13;46.74;98906.97;4834565;28;101905;-92
2021/09/29 08:23:32;;;;;;;;;15.25;13.00;;;;;16.12;47.47;98903.41;4855931;28;103371;-92
2021/09/29 08:32:24;;;;;;;;;13.50;13.00;;;;;16.18;47.12;98907.13;4848370;28;102259;-91
2021/09/29 08:40:02;;;;;;;;;15.50;14.00;;;;;16.18;47.69;98904.41;4852644;28;101849;-92
2021/09/29 08:44:56;;;;;;;;;15.50;13.00;;;;;16.18;47.59;98907.13;4856005;28;103414;-93
2021/09/29 08:47:28;;;;;;;;;12.75;12.00;;;;;16.20;47.92;98905.84;4831312;28;102409;-92
2021/09/29 08:53:19;;;;;;;;;11.75;10.75;;;;;16.25;47.30;98903.28;4837260;28;102386;-92
2021/09/29 09:15:20;;;;;;;;;14.25;12.00;;;;;16.33;47.67;98899.38;4866237;28;102207;-92
2021/09/29 09:17:35;;;;;;;;;13.50;11.50;;;;;16.33;47.53;98896.66;4855058;28;107774;-93
2021/09/29 09:20:12;;;;;;;;;14.50;12.75;;;;;16.34;48.37;98901.06;4870534;28;102010;-93
2021/09/29 09:22:39;;;;;;;;;13.00;13.00;;;;;16.35;48.09;98908.16;4867740;28;102618;-93
2021/09/29 09:25:07;;;;;;;;;14.00;12.00;;;;;16.35;48.20;98909.00;4854698;28;102342;-92
2021/09/29 09:27:38;;;;;;;;;13.75;13.75;;;;;16.33;48.04;98902.94;4870236;28;110149;-92
2021/09/29 09:30:06;;;;;;;;;12.75;11.00;;;;;16.36;48.37;98905.22;4866329;28;101846;-93
2021/09/29 09:32:41;;;;;;;;;12.25;11.75;;;;;16.38;47.88;98903.09;4862663;28;103084;-93
2021/09/29 09:35:13;;;;;;;;;13.25;12.75;;;;;16.37;48.58;98898.69;4855962;28;101801;-92
2021/09/29 09:37:44;;;;;;;;;11.25;11.00;;;;;16.38;48.78;98908.56;4870584;28;108198;-93
2021/09/29 09:40:16;;;;;;;;;14.25;14.25;;;;;16.39;48.73;98903.94;4865445;28;101737;-93
2021/09/29 09:42:46;;;;;;;;;14.75;13.00;;;;;16.40;48.74;98908.31;4852642;28;102555;-94
2021/09/29 09:45:13;;;;;;;;;14.00;13.00;;;;;16.40;49.17;98903.69;4875030;28;101829;-93
2021/09/29 09:47:43;;;;;;;;;13.75;11.25;;;;;16.42;48.17;98903.47;4862878;28;107819;-93
2021/09/29 09:50:11;;;;;;;;;12.25;10.50;;;;;16.42;48.75;98904.31;4844432;28;102617;-93
2021/09/29 09:52:42;;;;;;;;;12.75;12.75;;;;;16.44;49.33;98896.69;4876519;28;102015;-93
2021/09/29 09:55:13;;;;;;;;;13.75;12.00;;;;;16.44;48.98;98893.13;4869021;28;102112;-92
2021/09/29 09:57:41;;;;;;;;;11.00;11.00;;;;;16.44;48.48;98882.22;4867967;28;108014;-93
2021/09/29 10:00:10;;;;;;;;;14.75;12.75;;;;;16.44;48.58;98880.31;4873625;28;102185;-93
2021/09/29 10:02:43;;;;;;;;;11.25;11.25;;;;;16.44;49.04;98882.22;4866363;28;101913;-93
2021/09/29 10:05:15;;;;;;;;;14.00;12.75;;;;;16.45;49.37;98881.16;4874773;28;101872;-93
2021/09/29 10:07:42;;;;;;;;;12.00;11.75;;;;;16.47;48.88;98887.22;4879474;28;107857;-93
2021/09/29 10:10:16;;;;;;;;;14.00;12.75;;;;;16.50;49.86;98889.47;4868531;28;102684;-93
2021/09/29 10:26:23;;;;;;;;;14.00;12.00;;;;;16.60;50.19;98875.31;4860110;28;101939;-93
2021/09/29 10:29:02;;;;;;;;;12.00;11.00;;;;;16.60;49.80;98876.16;4867603;28;108067;-93
2021/09/29 10:34:27;;;;;;;;;15.25;12.00;;;;;16.62;49.84;98873.16;4871992;28;101916;-92
2021/09/29 10:37:26;;;;;;;;;12.00;11.25;;;;;16.61;49.62;98872.34;4864223;28;103450;-92
2021/09/29 10:42:59;;;;;;;;;13.25;12.50;;;;;16.63;49.57;98864.75;4868643;28;102154;-93
2021/09/29 10:45:35;;;;;;;;;13.50;13.00;;;;;16.67;49.93;98867.84;4880045;28;102050;-93
2021/09/29 11:11:11;;;;;;;;;12.75;12.50;;;;;16.81;50.53;98837.34;4879242;28;101979;-93
2021/09/29 11:30:43;;;;;;;;;11.25;11.25;;;;;17.03;50.44;98823.94;4880348;28;101975;-93
2021/09/29 11:33:28;;;;;;;;;12.25;11.50;;;;;17.06;50.96;98819.94;4875986;28;102303;-93
2021/09/29 11:36:05;;;;;;;;;12.50;11.75;;;;;17.08;50.67;98825.97;4869641;28;108178;-93
2021/09/29 11:39:03;;;;;;;;;14.50;12.00;;;;;17.12;51.43;98821.69;4877924;28;102077;-93
2021/09/29 12:14:52;;;;;;;;;14.50;12.00;;;;;17.39;50.73;98811.94;4870358;28;102098;-92
2021/09/29 12:17:25;;;;;;;;;10.00;10.00;;;;;17.42;50.07;98810.66;4866163;28;101824;-93
2021/09/29 12:20:01;;;;;;;;;12.00;11.00;;;;;17.43;50.30;98810.38;4856485;28;103439;-93
2021/09/29 12:22:30;;;;;;;;;12.75;11.00;;;;;17.44;50.23;98814.78;4877675;28;102394;-93
2021/09/29 12:25:12;;;;;;;;;12.25;10.00;;;;;17.47;50.76;98816.22;4865470;28;101793;-93
2021/09/29 12:27:48;;;;;;;;;10.50;10.50;;;;;17.49;50.63;98817.63;4873786;28;101802;-93
2021/09/29 12:30:37;;;;;;;;;9.75;9.00;;;;;17.49;50.31;98809.44;4867183;28;108225;-93
2021/09/29 12:35:46;;;;;;;;;11.50;11.00;;;;;17.53;50.88;98817.97;4868595;28;104194;-93
2021/09/29 12:38:13;;;;;;;;;11.25;10.00;;;;;17.54;50.19;98814.19;4879762;28;101841;-93
2021/09/29 12:40:41;;;;;;;;;9.25;9.25;;;;;17.56;50.07;98817.53;4864906;28;103226;-93
2021/09/29 12:43:13;;;;;;;;;10.25;9.25;;;;;17.56;50.22;98812.84;4870919;28;102395;-93
2021/09/29 12:45:44;;;;;;;;;12.00;11.50;;;;;17.58;50.38;98826.28;4875601;28;102200;-93
2021/09/29 12:48:12;;;;;;;;;12.00;11.25;;;;;17.59;50.17;98815.16;4854579;28;102242;-93
2021/09/29 12:50:55;;;;;;;;;14.00;11.00;;;;;17.62;50.37;98811.09;4868189;28;103419;-92
2021/09/29 12:53:46;;;;;;;;;11.00;9.50;;;;;17.63;50.93;98815.50;4874869;28;102116;-93
2021/09/29 12:56:16;;;;;;;;;10.25;10.25;;;;;17.66;49.74;98812.28;4863794;28;103852;-93
2021/09/29 12:58:44;;;;;;;;;11.00;9.50;;;;;17.65;50.20;98819.66;4868260;28;101799;-93
2021/09/29 13:01:13;;;;;;;;;13.25;11.25;;;;;17.66;49.96;98815.84;4856996;28;103620;-93
2021/09/29 13:03:41;;;;;;;;;11.75;11.25;;;;;17.69;50.86;98815.38;4873816;28;102481;-93
2021/09/29 13:06:10;;;;;;;;;11.75;10.00;;;;;17.68;49.71;98813.72;4868550;28;102091;-92
2021/09/29 13:08:37;;;;;;;;;11.00;10.00;;;;;17.71;50.17;98815.13;4863393;28;105505;-93
2021/09/29 13:11:04;;;;;;;;;9.75;9.00;;;;;17.72;50.83;98817.63;4869743;28;103243;-93
2021/09/29 13:13:31;;;;;;;;;10.50;10.00;;;;;17.73;50.38;98815.72;4865544;28;102138;-93
2021/09/29 13:16:00;;;;;;;;;9.75;9.75;;;;;17.74;50.24;98814.66;4829951;28;102286;-93
2021/09/29 13:23:57;;;;;;;;;11.00;10.50;;;;;17.75;50.02;98821.78;4855483;28;101748;-92
2021/09/29 13:37:28;;;;;;;;;12.50;10.75;;;;;17.99;49.83;98831.59;4847080;28;101723;-95
2021/09/29 13:39:55;;;;;;;;;9.75;9.75;;;;;18.13;49.64;98834.88;4853010;28;102450;-89
2021/09/29 13:42:23;;;;;;;;;10.75;9.00;;;;;18.28;49.51;98829.69;4857302;28;105106;-89
2021/09/29 13:44:52;;;;;;;;;10.67;9.00;;;;;18.43;50.66;98824.47;4849961;28;103007;-92
2021/09/29 13:47:19;;;;;;;;;9.00;9.00;;;;;18.53;53.03;98824.69;4831218;28;101710;-94
2021/09/29 13:49:46;;;;;;;;;7.25;6.50;;;;;18.65;52.85;98822.72;4843574;28;102039;-93
2021/09/29 13:52:16;;;;;;;;;8.00;7.00;;;;;18.76;53.60;98821.00;4848592;28;108289;-93